createdAt,value
2018-09-30T00:00:03.902Z,3.40
2018-09-30T00:02:33.970Z,4.40
2018-09-30T00:05:04.576Z,4.10
2018-09-30T00:07:34.624Z,3.63
2018-09-30T00:10:05.027Z,3.27
2018-09-30T00:12:34.581Z,3.10
2018-09-30T00:15:05.129Z,3.70
2018-09-30T00:17:35.740Z,3.60
2018-09-30T00:20:06.063Z,3.13
2018-09-30T00:22:36.050Z,3.63
2018-09-30T00:25:10.992Z,3.30
2018-09-30T00:27:41.042Z,3.07
2018-09-30T00:30:11.580Z,3.80
2018-09-30T00:32:42.016Z,3.10
2018-09-30T00:35:11.954Z,3.93
2018-09-30T00:37:42.168Z,3.50
2018-09-30T00:40:12.305Z,3.20
2018-09-30T00:42:42.567Z,3.60
2018-09-30T00:45:12.455Z,3.00
2018-09-30T00:47:42.847Z,3.40
2018-09-30T00:50:13.719Z,2.70
2018-09-30T00:52:44.200Z,3.47
2018-09-30T00:55:14.162Z,2.90
2018-09-30T00:57:44.363Z,3.40
2018-09-30T01:00:15.593Z,3.13
2018-09-30T01:02:45.737Z,3.27
2018-09-30T01:05:16.560Z,3.27
2018-09-30T01:07:47.893Z,4.03
2018-09-30T01:10:17.777Z,3.03
2018-09-30T01:12:48.045Z,3.33
2018-09-30T01:15:18.953Z,2.87
2018-09-30T01:17:48.974Z,3.70
2018-09-30T01:20:18.850Z,4.00
2018-09-30T01:22:48.995Z,3.03
2018-09-30T01:25:18.956Z,2.93
2018-09-30T01:27:49.114Z,3.17
2018-09-30T01:30:19.101Z,3.40
2018-09-30T01:32:49.237Z,2.83
2018-09-30T01:35:19.279Z,3.63
2018-09-30T01:37:49.322Z,2.97
2018-09-30T01:40:19.712Z,3.23
2018-09-30T01:42:49.621Z,3.37
2018-09-30T01:45:19.739Z,3.43
2018-09-30T01:47:49.729Z,2.80
2018-09-30T01:50:19.742Z,3.00
2018-09-30T01:52:56.973Z,3.30
2018-09-30T01:55:27.864Z,2.87
2018-09-30T01:57:57.627Z,3.40
2018-09-30T02:00:27.605Z,3.30
2018-09-30T02:02:57.678Z,2.27
2018-09-30T02:05:27.605Z,3.20
2018-09-30T02:07:57.456Z,3.10
2018-09-30T02:10:27.392Z,3.23
2018-09-30T02:12:57.426Z,2.93
2018-09-30T02:15:27.416Z,2.50
2018-09-30T02:17:57.547Z,3.47
2018-09-30T02:20:27.820Z,2.47
2018-09-30T02:22:57.646Z,3.07
2018-09-30T02:25:27.552Z,3.30
2018-09-30T02:27:57.404Z,2.80
2018-09-30T02:30:27.447Z,2.87
2018-09-30T02:32:57.436Z,3.00
2018-09-30T02:35:27.463Z,3.30
2018-09-30T02:37:57.687Z,3.17
2018-09-30T02:40:27.621Z,2.73
2018-09-30T02:42:57.897Z,3.00
2018-09-30T02:45:28.014Z,2.30
2018-09-30T02:47:57.997Z,3.20
2018-09-30T02:50:27.955Z,2.73
2018-09-30T02:52:58.122Z,3.37
2018-09-30T02:55:28.232Z,2.33
2018-09-30T02:57:58.451Z,3.03
2018-09-30T03:00:29.641Z,2.93
2018-09-30T03:02:59.712Z,2.47
2018-09-30T03:05:30.836Z,2.80
2018-09-30T03:08:05.792Z,2.87
2018-09-30T03:10:36.930Z,3.10
2018-09-30T03:13:08.112Z,3.03
2018-09-30T03:15:39.519Z,2.57
2018-09-30T03:18:09.678Z,2.73
2018-09-30T03:20:39.685Z,3.03
2018-09-30T03:23:09.668Z,3.17
2018-09-30T03:25:39.756Z,2.70
2018-09-30T03:28:10.459Z,2.97
2018-09-30T03:30:41.620Z,2.80
2018-09-30T03:33:11.309Z,2.97
2018-09-30T03:35:41.474Z,2.83
2018-09-30T03:38:11.353Z,3.17
2018-09-30T03:40:41.445Z,3.17
2018-09-30T03:43:11.292Z,3.87
2018-09-30T03:45:41.267Z,2.90
2018-09-30T03:48:11.279Z,3.20
2018-09-30T03:50:41.469Z,2.67
2018-09-30T03:53:12.386Z,3.57
2018-09-30T03:55:42.480Z,3.37
2018-09-30T03:58:12.632Z,2.90
2018-09-30T04:00:42.618Z,2.57
2018-09-30T04:03:12.641Z,2.47
2018-09-30T04:05:43.127Z,2.67
2018-09-30T04:08:13.116Z,2.77
2018-09-30T04:10:43.171Z,3.13
2018-09-30T04:13:13.341Z,2.63
2018-09-30T04:15:43.462Z,3.13
2018-09-30T04:18:13.913Z,2.30
2018-09-30T04:20:45.348Z,2.90
2018-09-30T04:23:15.275Z,2.63
2018-09-30T04:25:46.308Z,3.37
2018-09-30T04:28:19.128Z,2.43
2018-09-30T04:30:49.715Z,2.73
2018-09-30T04:33:19.892Z,3.07
2018-09-30T04:35:50.294Z,2.60
2018-09-30T04:38:20.111Z,2.67
2018-09-30T04:40:50.615Z,3.80
2018-09-30T04:43:20.779Z,3.23
2018-09-30T04:45:50.698Z,3.03
2018-09-30T04:48:20.632Z,2.93
2018-09-30T04:50:50.082Z,2.73
2018-09-30T04:53:20.563Z,3.17
2018-09-30T04:55:50.567Z,3.13
2018-09-30T04:58:20.936Z,3.53
2018-09-30T05:00:52.456Z,2.90
2018-09-30T05:03:22.622Z,2.67
2018-09-30T05:05:52.819Z,2.97
2018-09-30T05:08:23.830Z,3.07
2018-09-30T05:10:54.000Z,2.67
2018-09-30T05:13:24.269Z,2.80
2018-09-30T05:15:53.742Z,2.40
2018-09-30T05:18:24.359Z,2.60
2018-09-30T05:20:54.227Z,2.80
2018-09-30T05:23:24.040Z,2.63
2018-09-30T05:25:53.646Z,3.03
2018-09-30T05:28:23.370Z,2.90
2018-09-30T05:30:53.241Z,2.93
2018-09-30T05:33:23.150Z,3.50
2018-09-30T05:35:52.821Z,2.80
2018-09-30T05:38:23.114Z,3.30
2018-09-30T05:40:52.766Z,3.47
2018-09-30T05:43:22.983Z,2.87
2018-09-30T05:45:53.940Z,2.73
2018-09-30T05:48:24.286Z,2.60
2018-09-30T05:50:55.146Z,3.07
2018-09-30T05:53:25.107Z,2.97
2018-09-30T05:55:54.851Z,2.77
2018-09-30T05:58:24.832Z,3.07
2018-09-30T06:00:54.782Z,3.67
2018-09-30T06:03:24.835Z,2.97
2018-09-30T06:05:55.000Z,3.17
2018-09-30T06:08:25.498Z,2.63
2018-09-30T06:10:55.980Z,3.20
2018-09-30T06:13:25.926Z,2.97
2018-09-30T06:15:56.812Z,3.23
2018-09-30T06:18:26.669Z,3.30
2018-09-30T06:20:56.691Z,3.20
2018-09-30T06:23:26.571Z,3.17
2018-09-30T06:25:56.646Z,3.10
2018-09-30T06:28:26.094Z,3.40
2018-09-30T06:30:56.058Z,2.97
2018-09-30T06:33:26.238Z,3.40
2018-09-30T06:35:56.143Z,3.90
2018-09-30T06:38:26.277Z,2.87
2018-09-30T06:40:56.517Z,3.70
2018-09-30T06:43:27.147Z,3.00
2018-09-30T06:45:58.174Z,3.23
2018-09-30T06:48:28.954Z,2.90
2018-09-30T06:50:58.959Z,3.87
2018-09-30T06:53:29.021Z,3.53
2018-09-30T06:55:59.673Z,3.50
2018-09-30T06:58:29.506Z,2.90
2018-09-30T07:00:59.468Z,3.30
2018-09-30T07:03:30.093Z,3.30
2018-09-30T07:06:00.703Z,3.20
2018-09-30T07:08:31.412Z,4.20
2018-09-30T07:11:02.107Z,3.33
2018-09-30T07:13:32.082Z,3.33
2018-09-30T07:16:03.133Z,3.23
2018-09-30T07:18:32.405Z,3.30
2018-09-30T07:21:02.430Z,3.67
2018-09-30T07:23:33.280Z,4.30
2018-09-30T07:26:03.448Z,4.17
2018-09-30T07:28:33.462Z,3.67
2018-09-30T07:31:03.062Z,3.30
2018-09-30T07:33:33.019Z,3.93
2018-09-30T07:36:02.951Z,3.57
2018-09-30T07:38:32.748Z,4.03
2018-09-30T07:41:03.394Z,3.83
2018-09-30T07:43:34.348Z,4.00
2018-09-30T07:46:04.409Z,3.50
2018-09-30T07:48:34.261Z,3.33
2018-09-30T07:51:04.317Z,3.57
2018-09-30T07:53:34.182Z,3.80
2018-09-30T07:56:04.053Z,4.43
2018-09-30T07:58:33.878Z,3.33
2018-09-30T08:01:03.878Z,5.00
2018-09-30T08:03:33.810Z,19.37
2018-09-30T08:06:03.689Z,5.50
2018-09-30T08:08:33.517Z,4.03
2018-09-30T08:11:03.475Z,6.77
2018-09-30T08:13:33.396Z,3.77
2018-09-30T08:16:03.363Z,3.93
2018-09-30T08:18:33.207Z,4.87
2018-09-30T08:21:03.249Z,3.67
2018-09-30T08:23:39.311Z,4.10
2018-09-30T08:26:08.954Z,6.00
2018-09-30T08:28:39.005Z,7.57
2018-09-30T08:31:09.556Z,3.77
2018-09-30T08:33:39.897Z,5.37
2018-09-30T08:36:10.688Z,4.13
2018-09-30T08:38:41.952Z,3.53
2018-09-30T08:41:13.832Z,5.87
2018-09-30T08:43:44.280Z,4.03
2018-09-30T08:46:15.053Z,3.30
2018-09-30T08:48:45.838Z,3.17
2018-09-30T08:51:16.384Z,3.00
2018-09-30T08:53:46.891Z,3.40
2018-09-30T08:56:17.019Z,2.87
2018-09-30T08:58:47.012Z,2.33
2018-09-30T09:01:17.197Z,6.83
2018-09-30T09:03:47.706Z,3.87
2018-09-30T09:06:17.815Z,3.10
2018-09-30T09:08:47.588Z,2.97
2018-09-30T09:11:17.370Z,3.13
2018-09-30T09:13:48.171Z,3.53
2018-09-30T09:16:18.107Z,2.97
2018-09-30T09:18:48.983Z,1.93
2018-09-30T09:21:19.272Z,2.22
2018-09-30T09:23:49.081Z,2.55
2018-09-30T09:26:19.232Z,2.80
2018-09-30T09:28:51.273Z,2.50
2018-09-30T09:31:20.837Z,2.50
2018-09-30T09:33:50.553Z,2.33
2018-09-30T09:36:20.209Z,2.20
2018-09-30T09:38:50.182Z,1.85
2018-09-30T09:41:20.029Z,1.77
2018-09-30T09:43:50.038Z,2.00
2018-09-30T09:46:19.847Z,2.00
2018-09-30T09:48:49.627Z,2.00
2018-09-30T09:51:20.475Z,1.60
2018-09-30T09:53:51.215Z,2.02
2018-09-30T09:56:21.291Z,1.90
2018-09-30T09:58:51.480Z,1.85
2018-09-30T10:01:21.663Z,1.90
2018-09-30T10:03:51.603Z,1.77
2018-09-30T10:06:21.822Z,1.77
2018-09-30T10:08:52.200Z,1.82
2018-09-30T10:11:22.518Z,1.55
2018-09-30T10:13:52.634Z,1.72
2018-09-30T10:16:22.791Z,1.90
2018-09-30T10:18:53.374Z,1.50
2018-09-30T10:21:23.595Z,1.60
2018-09-30T10:23:53.657Z,1.80
2018-09-30T10:26:23.719Z,1.95
2018-09-30T10:28:53.666Z,1.95
2018-09-30T10:31:23.746Z,1.55
2018-09-30T10:33:53.705Z,1.80
2018-09-30T10:36:23.723Z,1.80
2018-09-30T10:38:54.311Z,2.00
2018-09-30T10:41:24.340Z,1.80
2018-09-30T10:43:54.986Z,2.00
2018-09-30T10:46:25.861Z,1.80
2018-09-30T10:48:55.912Z,1.57
2018-09-30T10:51:26.085Z,2.15
2018-09-30T10:53:56.043Z,1.87
2018-09-30T10:56:26.644Z,2.03
2018-09-30T10:58:57.142Z,2.17
2018-09-30T11:01:27.159Z,2.17
2018-09-30T11:03:57.553Z,1.97
2018-09-30T11:06:27.362Z,1.97
2018-09-30T11:08:57.677Z,1.77
2018-09-30T11:11:28.916Z,2.30
2018-09-30T11:13:59.441Z,2.23
2018-09-30T11:16:29.431Z,2.10
2018-09-30T11:19:00.721Z,1.73
2018-09-30T11:21:31.013Z,1.57
2018-09-30T11:24:01.440Z,2.03
2018-09-30T11:26:31.633Z,1.87
2018-09-30T11:29:02.086Z,1.97
2018-09-30T11:31:32.744Z,1.87
2018-09-30T11:34:02.592Z,1.60
2018-09-30T11:36:33.217Z,2.07
2018-09-30T11:39:03.271Z,1.67
2018-09-30T11:41:33.694Z,1.73
2018-09-30T11:44:05.980Z,1.80
2018-09-30T11:46:37.090Z,1.67
2018-09-30T11:49:08.248Z,1.80
2018-09-30T11:51:38.482Z,1.63
2018-09-30T11:54:08.669Z,2.10
2018-09-30T11:56:39.596Z,1.70
2018-09-30T11:59:09.578Z,1.93
2018-09-30T12:01:40.177Z,2.10
2018-09-30T12:04:10.318Z,2.10
2018-09-30T12:06:40.993Z,1.40
2018-09-30T12:09:13.104Z,1.50
2018-09-30T12:11:43.636Z,1.90
2018-09-30T12:14:13.670Z,2.23
2018-09-30T12:16:44.296Z,2.10
2018-09-30T12:19:14.964Z,1.63
2018-09-30T12:21:45.594Z,1.93
2018-09-30T12:24:15.772Z,1.90
2018-09-30T12:26:47.646Z,1.50
2018-09-30T12:29:17.786Z,1.87
2018-09-30T12:31:47.909Z,1.83
2018-09-30T12:34:18.030Z,1.93
2018-09-30T12:36:47.995Z,1.80
2018-09-30T12:39:18.662Z,1.50
2018-09-30T12:41:48.754Z,1.70
2018-09-30T12:44:18.888Z,1.77
2018-09-30T12:46:48.969Z,2.10
2018-09-30T12:49:19.097Z,1.53
2018-09-30T12:51:49.360Z,1.60
2018-09-30T12:54:19.295Z,1.20
2018-09-30T12:56:49.283Z,2.20
2018-09-30T12:59:20.616Z,1.60
2018-09-30T13:01:50.548Z,1.80
2018-09-30T13:04:20.812Z,1.40
2018-09-30T13:06:50.812Z,1.60
2018-09-30T13:09:20.957Z,1.93
2018-09-30T13:11:51.318Z,1.60
2018-09-30T13:14:21.373Z,1.70
2018-09-30T13:16:52.386Z,2.00
2018-09-30T13:19:22.422Z,1.87
2018-09-30T13:21:52.454Z,1.90
2018-09-30T13:24:23.043Z,1.40
2018-09-30T13:26:53.247Z,2.00
2018-09-30T13:29:23.520Z,1.50
2018-09-30T13:31:54.096Z,1.50
2018-09-30T13:34:24.182Z,1.63
2018-09-30T13:36:54.216Z,1.80
2018-09-30T13:39:24.716Z,1.43
2018-09-30T13:41:55.561Z,2.03
2018-09-30T13:44:25.697Z,1.53
2018-09-30T13:46:56.310Z,1.50
2018-09-30T13:49:26.551Z,1.60
2018-09-30T13:51:56.571Z,1.40
2018-09-30T13:54:26.663Z,1.30
2018-09-30T13:56:57.048Z,1.37
2018-09-30T13:59:27.183Z,1.53
2018-09-30T14:01:57.287Z,1.70
2018-09-30T14:04:27.482Z,1.80
2018-09-30T14:06:57.961Z,1.67
2018-09-30T14:09:28.175Z,1.60
2018-09-30T14:11:58.451Z,1.77
2018-09-30T14:14:29.110Z,1.20
2018-09-30T14:16:59.386Z,1.43
2018-09-30T14:19:29.122Z,1.80
2018-09-30T14:21:59.523Z,1.53
2018-09-30T14:24:29.629Z,1.50
2018-09-30T14:26:59.821Z,1.57
2018-09-30T14:29:30.501Z,1.77
2018-09-30T14:32:00.648Z,1.53
2018-09-30T14:34:31.544Z,1.73
2018-09-30T14:37:01.611Z,1.37
2018-09-30T14:39:31.575Z,1.60
2018-09-30T14:42:01.622Z,1.77
2018-09-30T14:44:31.805Z,1.40
2018-09-30T14:47:02.408Z,1.87
2018-09-30T14:49:32.417Z,11.00
2018-09-30T14:52:02.254Z,4.37
2018-09-30T14:54:32.451Z,2.30
2018-09-30T14:57:02.446Z,1.90
2018-09-30T14:59:33.215Z,1.90
2018-09-30T15:02:03.163Z,1.50
2018-09-30T15:04:33.130Z,1.40
2018-09-30T15:07:03.144Z,1.30
2018-09-30T15:09:33.260Z,1.60
2018-09-30T15:12:03.495Z,1.70
2018-09-30T15:14:34.543Z,1.90
2018-09-30T15:17:05.623Z,1.50
2018-09-30T15:19:35.639Z,1.73
2018-09-30T15:22:06.326Z,1.53
2018-09-30T15:24:36.496Z,1.50
2018-09-30T15:27:06.875Z,1.43
2018-09-30T15:29:36.931Z,2.00
2018-09-30T15:32:07.269Z,1.63
2018-09-30T15:34:36.522Z,1.73
2018-09-30T15:37:06.681Z,1.60
2018-09-30T15:39:37.397Z,1.33
2018-09-30T15:42:08.455Z,1.53
2018-09-30T15:44:38.949Z,1.40
2018-09-30T15:47:09.000Z,1.60
2018-09-30T15:49:38.711Z,1.40
2018-09-30T15:52:08.808Z,1.57
2018-09-30T15:54:38.635Z,1.73
2018-09-30T15:57:08.538Z,1.60
2018-09-30T15:59:38.006Z,1.80
2018-09-30T16:02:08.580Z,1.23
2018-09-30T16:04:39.596Z,1.60
2018-09-30T16:07:10.657Z,1.50
2018-09-30T16:09:40.796Z,1.90
2018-09-30T16:12:10.982Z,1.53
2018-09-30T16:14:41.919Z,1.93
2018-09-30T16:17:12.052Z,1.60
2018-09-30T16:19:43.360Z,1.30
2018-09-30T16:22:14.581Z,1.70
2018-09-30T16:24:45.859Z,1.73
2018-09-30T16:27:15.747Z,2.00
2018-09-30T16:29:46.564Z,1.33
2018-09-30T16:32:17.907Z,1.67
2018-09-30T16:34:47.680Z,2.07
2018-09-30T16:37:20.605Z,2.00
2018-09-30T16:39:51.768Z,1.90
2018-09-30T16:42:23.704Z,1.87
2018-09-30T16:44:53.845Z,1.90
2018-09-30T16:47:24.010Z,2.03
2018-09-30T16:49:54.654Z,2.13
2018-09-30T16:52:25.384Z,1.73
2018-09-30T16:54:54.203Z,1.90
2018-09-30T17:04:25.356Z,2.23
2018-09-30T17:06:57.288Z,2.93
2018-09-30T17:09:28.782Z,3.13
2018-09-30T17:11:59.008Z,3.10
2018-09-30T17:14:29.210Z,4.37
2018-09-30T17:16:59.493Z,3.67
2018-09-30T17:19:28.987Z,5.53
2018-09-30T17:21:58.986Z,4.63
2018-09-30T17:24:28.853Z,5.83
2018-09-30T17:27:01.402Z,12.87
2018-09-30T17:29:30.366Z,4.33
2018-09-30T17:32:01.718Z,4.23
2018-09-30T17:34:34.516Z,4.40
2018-09-30T17:37:05.341Z,3.83
2018-09-30T17:39:39.669Z,3.90
2018-09-30T17:42:10.990Z,3.87
2018-09-30T17:44:43.218Z,3.40
2018-09-30T17:47:14.306Z,4.30
2018-09-30T17:49:44.735Z,3.47
2018-09-30T17:52:14.387Z,3.50
2018-09-30T17:54:45.541Z,3.33
2018-09-30T17:57:15.795Z,3.57
2018-09-30T17:59:47.000Z,3.17
2018-09-30T18:02:17.003Z,3.43
2018-09-30T18:04:47.464Z,3.60
2018-09-30T18:07:17.700Z,4.27
2018-09-30T18:09:47.704Z,4.17
2018-09-30T18:12:18.202Z,4.07
2018-09-30T18:21:50.776Z,4.53
2018-09-30T18:24:20.421Z,3.83
2018-09-30T18:26:50.510Z,4.20
2018-09-30T18:29:20.583Z,4.27
2018-09-30T18:31:50.821Z,3.73
2018-09-30T18:34:21.047Z,3.87
2018-09-30T18:36:52.078Z,4.57
2018-09-30T18:39:23.907Z,4.53
2018-09-30T18:41:55.088Z,4.47
2018-09-30T18:44:24.798Z,4.50
2018-09-30T18:46:55.509Z,4.30
2018-09-30T18:49:26.657Z,4.43
2018-09-30T18:51:57.403Z,4.40
2018-09-30T18:54:27.678Z,4.50
2018-09-30T18:56:58.652Z,4.70
2018-09-30T18:59:30.399Z,5.00
2018-09-30T19:02:00.931Z,4.67
2018-09-30T19:04:32.060Z,4.67
2018-09-30T19:07:01.442Z,4.70
2018-09-30T19:09:31.100Z,4.77
2018-09-30T19:12:01.027Z,4.93
2018-09-30T19:14:31.039Z,5.53
2018-09-30T19:17:01.027Z,4.93
2018-09-30T19:19:31.114Z,4.80
2018-09-30T19:22:00.332Z,4.73
2018-09-30T19:24:30.234Z,4.23
2018-09-30T19:27:00.350Z,4.77
2018-09-30T19:29:29.705Z,4.03
2018-09-30T19:31:58.745Z,4.47
2018-09-30T19:34:27.972Z,5.20
2018-09-30T19:36:57.720Z,4.83
2018-09-30T19:39:26.956Z,4.10
2018-09-30T19:41:57.225Z,4.93
2018-09-30T19:44:26.606Z,5.00
2018-09-30T19:46:56.386Z,3.83
2018-09-30T19:49:25.745Z,4.93
2018-09-30T19:51:56.021Z,4.73
2018-09-30T19:54:25.609Z,4.87
2018-09-30T19:56:55.046Z,4.77
2018-09-30T19:59:24.016Z,4.23
2018-09-30T20:01:53.520Z,4.90
2018-09-30T20:04:23.392Z,6.23
2018-09-30T20:06:53.415Z,5.87
2018-09-30T20:09:24.186Z,5.37
2018-09-30T20:11:53.919Z,5.70
2018-09-30T20:14:23.594Z,5.60
2018-09-30T20:16:53.234Z,5.80
2018-09-30T20:19:24.157Z,5.90
2018-09-30T20:21:54.049Z,4.60
2018-09-30T20:24:24.865Z,4.30
2018-09-30T20:26:54.822Z,5.30
2018-09-30T20:29:24.633Z,5.50
2018-09-30T20:31:54.248Z,5.17
2018-09-30T20:35:53.278Z,5.13
2018-09-30T20:38:22.616Z,4.97
2018-09-30T20:40:52.183Z,5.63
2018-09-30T20:43:22.928Z,6.73
2018-09-30T20:45:52.220Z,4.90
2018-09-30T20:48:22.240Z,5.73
2018-09-30T20:50:52.403Z,5.23
2018-09-30T20:53:22.398Z,4.97
2018-09-30T20:55:52.184Z,5.10
2018-09-30T20:58:22.012Z,5.57
2018-09-30T21:00:51.982Z,7.03
2018-09-30T21:03:20.999Z,5.63
2018-09-30T21:05:59.500Z,5.70
2018-09-30T21:08:29.653Z,5.00
2018-09-30T21:10:59.527Z,5.47
2018-09-30T21:13:29.271Z,6.23
2018-09-30T21:15:59.496Z,5.53
2018-09-30T21:18:29.622Z,6.00
2018-09-30T21:20:59.901Z,4.67
2018-09-30T21:23:31.340Z,6.20
2018-09-30T21:26:02.901Z,5.07
2018-09-30T21:28:33.952Z,5.33
2018-09-30T21:31:04.070Z,5.93
2018-09-30T21:33:33.905Z,5.70
2018-09-30T21:36:04.220Z,6.40
2018-09-30T21:38:34.954Z,5.10
2018-09-30T21:41:05.077Z,5.80
2018-09-30T21:43:35.150Z,6.13
2018-09-30T21:46:05.078Z,5.53
2018-09-30T21:48:35.075Z,5.43
2018-09-30T21:51:05.277Z,5.60
2018-09-30T21:53:36.063Z,6.00
2018-09-30T21:56:05.848Z,5.43
2018-09-30T21:58:36.915Z,5.13
2018-09-30T22:01:07.915Z,5.47
2018-09-30T22:03:37.911Z,5.23
2018-09-30T22:06:08.018Z,5.93
2018-09-30T22:08:38.127Z,5.97
2018-09-30T22:11:08.092Z,6.10
2018-09-30T22:13:38.026Z,5.57
2018-09-30T22:16:08.395Z,6.47
2018-09-30T22:18:39.414Z,5.60
2018-09-30T22:21:09.455Z,6.77
2018-09-30T22:23:39.493Z,5.53
2018-09-30T22:26:09.559Z,6.37
2018-09-30T22:28:40.646Z,5.50
2018-09-30T22:31:10.562Z,5.47
2018-09-30T22:33:40.251Z,5.17
2018-09-30T22:36:10.106Z,5.27
2018-09-30T22:38:40.112Z,5.43
2018-09-30T22:41:11.071Z,5.00
2018-09-30T22:43:41.138Z,5.43
2018-09-30T22:46:11.127Z,5.23
2018-09-30T22:48:40.944Z,5.30
2018-09-30T22:51:10.646Z,5.57
2018-09-30T22:53:40.960Z,4.70
2018-09-30T22:56:10.543Z,5.53
2018-09-30T22:58:40.795Z,5.83
2018-09-30T23:01:11.002Z,4.87
2018-09-30T23:03:40.615Z,4.57
2018-09-30T23:06:10.458Z,4.53
2018-09-30T23:08:40.527Z,5.03
2018-09-30T23:11:10.328Z,4.80
2018-09-30T23:13:40.563Z,4.73
2018-09-30T23:16:09.712Z,3.97
2018-09-30T23:18:40.288Z,3.83
2018-09-30T23:21:10.032Z,4.93
2018-09-30T23:23:40.574Z,4.10
2018-09-30T23:26:10.512Z,5.43
2018-09-30T23:28:40.597Z,5.17
2018-09-30T23:31:10.447Z,4.47
2018-09-30T23:33:40.421Z,4.63
2018-09-30T23:36:10.652Z,5.10
2018-09-30T23:38:40.985Z,4.67
2018-09-30T23:41:10.982Z,3.77
2018-09-30T23:43:41.246Z,4.57
2018-09-30T23:46:11.111Z,4.80
2018-09-30T23:48:41.070Z,4.83
2018-09-30T23:51:11.688Z,4.17
2018-09-30T23:53:41.577Z,4.43
2018-09-30T23:56:11.505Z,4.60
2018-09-30T23:58:41.658Z,4.93
